Time;durP1;ratioP1;P1;durP2;ratioP2;P2;SDS_P1;SDS_P2;PMS_P1;PMS_P2;Temp;Humidity;BMP_temperature;BMP_pressure;BME280_temperature;BME280_humidity;BME280_pressure;Samples;Min_cycle;Max_cycle;Signal;HPM_P1;HPM_P2
2022/01/25 00:26:18;;;;;;;;;;;;;;;;;;5096371;28;1021;-75
2022/01/25 00:33:34;;;;;;;;;;;;;;;;;;5080921;28;686;-73
2022/01/25 00:36:00;;;;;;;;;;;;;;;;;;5095313;28;1909;-73
2022/01/25 00:38:26;;;;;;;;;;;;;;;;;;5076404;28;790;-73
2022/01/25 00:40:51;;;;;;;;;;;;;;;;;;5095687;28;821;-73
2022/01/25 00:43:17;;;;;;;;;;;;;;;;;;5095794;28;972;-73
2022/01/25 00:45:42;;;;;;;;;;;;;;;;;;5096104;28;840;-73
2022/01/25 00:48:17;;;;;;;;;;;;;;;;;;5095534;28;868;-73
2022/01/25 00:50:43;;;;;;;;;;;;;;;;;;5095165;28;903;-73
2022/01/25 00:55:34;;;;;;;;;;;;;;;;;;5095396;28;1987;-72
2022/01/25 00:57:59;;;;;;;;;;;;;;;;;;5094602;28;832;-73
2022/01/25 01:00:25;;;;;;;;;;;;;;;;;;5095020;28;813;-73
2022/01/25 01:02:51;;;;;;;;;;;;;;;;;;5096072;28;805;-72
2022/01/25 01:05:16;;;;;;;;;;;;;;;;;;5072414;28;1445;-71
2022/01/25 01:07:42;;;;;;;;;;;;;;;;;;5074950;28;1152;-73
2022/01/25 01:10:08;;;;;;;;;;;;;;;;;;5092151;28;1247;-71
2022/01/25 01:15:08;;;;;;;;;;;;;;;;;;5094523;28;1898;-71
2022/01/25 01:28:51;;;;;;;;;;;;;;;;;;5094687;28;836;-73
2022/01/25 01:44:26;;;;;;;;;;;;;;;;;;5094271;28;906;-76
2022/01/25 01:49:29;;;;;;;;;;;;;;;;;;5094202;28;844;-75
2022/01/25 01:51:54;;;;;;;;;;;;;;;;;;5094282;28;836;-75
2022/01/25 01:54:19;;;;;;;;;;;;;;;;;;5094088;28;1909;-73
2022/01/25 01:56:45;;;;;;;;;;;;;;;;;;5093732;28;1277;-75
2022/01/25 01:59:12;;;;;;;;;;;;;;;;;;5093703;28;1109;-75
2022/01/25 02:01:38;;;;;;;;;;;;;;;;;;5093691;28;998;-75
2022/01/25 02:04:05;;;;;;;;;;;;;;;;;;5096120;28;994;-76
2022/01/25 02:06:30;;;;;;;;;;;;;;;;;;5099573;28;891;-74
2022/01/25 02:08:56;;;;;;;;;;;;;;;;;;5096784;28;963;-75
2022/01/25 02:11:22;;;;;;;;;;;;;;;;;;5097443;28;864;-75
2022/01/25 02:13:48;;;;;;;;;;;;;;;;;;5097605;28;1006;-73
2022/01/25 02:24:25;;;;;;;;;;;;;;;;;;5095887;28;790;-73
2022/01/25 02:26:55;;;;;;;;;;;;;;;;;;5101572;28;964;-74
2022/01/25 02:29:20;;;;;;;;;;;;;;;;;;5093579;28;1257;-75
2022/01/25 02:31:45;;;;;;;;;;;;;;;;;;5076966;28;879;-75
2022/01/25 02:34:10;;;;;;;;;;;;;;;;;;5077214;28;1070;-75
2022/01/25 02:36:36;;;;;;;;;;;;;;;;;;5077733;28;1910;-75
2022/01/25 02:39:01;;;;;;;;;;;;;;;;;;5076043;28;840;-75
2022/01/25 02:41:27;;;;;;;;;;;;;;;;;;5055133;28;869;-75
2022/01/25 02:43:52;;;;;;;;;;;;;;;;;;5075057;28;849;-76
2022/01/25 02:48:29;;;;;;;;;;;;;;;;;;5074309;28;833;-74
2022/01/25 02:49:04;;;;;;;;;;;;;;;;;;5056889;28;781;-75
2022/01/25 02:51:33;;;;;;;;;;;;;;;;;;5072778;28;843;-76
2022/01/25 02:53:58;;;;;;;;;;;;;;;;;;5073340;28;853;-76
2022/01/25 02:56:24;;;;;;;;;;;;;;;;;;5071832;28;1952;-76
2022/01/25 02:58:50;;;;;;;;;;;;;;;;;;5072094;28;1011;-75
2022/01/25 03:01:15;;;;;;;;;;;;;;;;;;5071655;28;934;-75
2022/01/25 03:03:40;;;;;;;;;;;;;;;;;;5072381;28;943;-76
2022/01/25 03:06:06;;;;;;;;;;;;;;;;;;5071148;28;900;-75
2022/01/25 03:08:31;;;;;;;;;;;;;;;;;;5071516;28;758;-76
2022/01/25 03:10:57;;;;;;;;;;;;;;;;;;5072541;28;805;-76
2022/01/25 03:13:28;;;;;;;;;;;;;;;;;;5072024;28;892;-75
2022/01/25 03:15:59;;;;;;;;;;;;;;;;;;5053162;28;1965;-76
2022/01/25 03:18:47;;;;;;;;;;;;;;;;;;5054394;28;943;-74
2022/01/25 03:21:21;;;;;;;;;;;;;;;;;;5070843;28;1433;-74
2022/01/25 03:23:47;;;;;;;;;;;;;;;;;;5071312;28;888;-74
2022/01/25 03:26:13;;;;;;;;;;;;;;;;;;5070961;28;933;-74
2022/01/25 03:28:38;;;;;;;;;;;;;;;;;;5073834;28;997;-73
2022/01/25 03:31:03;;;;;;;;;;;;;;;;;;5091665;28;999;-73
2022/01/25 03:33:29;;;;;;;;;;;;;;;;;;5073058;28;895;-76
2022/01/25 03:35:54;;;;;;;;;;;;;;;;;;5073972;28;1910;-76
2022/01/25 03:38:19;;;;;;;;;;;;;;;;;;5090924;28;985;-73
2022/01/25 03:40:45;;;;;;;;;;;;;;;;;;5091203;28;1126;-76
2022/01/25 03:43:12;;;;;;;;;;;;;;;;;;5091459;28;873;-75
2022/01/25 03:45:40;;;;;;;;;;;;;;;;;;5073587;28;1675;-76
2022/01/25 03:50:37;;;;;;;;;;;;;;;;;;5091229;28;856;-76
2022/01/25 03:53:02;;;;;;;;;;;;;;;;;;5092384;28;1006;-76
2022/01/25 03:55:27;;;;;;;;;;;;;;;;;;5077275;28;1910;-76
2022/01/25 03:57:53;;;;;;;;;;;;;;;;;;5095342;28;923;-76
2022/01/25 04:00:19;;;;;;;;;;;;;;;;;;5076017;28;1214;-76
2022/01/25 04:03:07;;;;;;;;;;;;;;;;;;5095489;28;888;-76
2022/01/25 04:05:47;;;;;;;;;;;;;;;;;;5095104;28;1813;-75
2022/01/25 04:08:13;;;;;;;;;;;;;;;;;;5076054;28;1040;-76
2022/01/25 04:10:39;;;;;;;;;;;;;;;;;;5095214;28;896;-75
2022/01/25 04:13:04;;;;;;;;;;;;;;;;;;5095543;28;962;-75
2022/01/25 04:15:30;;;;;;;;;;;;;;;;;;5076416;28;1977;-75
2022/01/25 04:18:03;;;;;;;;;;;;;;;;;;5094791;28;832;-76
2022/01/25 04:20:34;;;;;;;;;;;;;;;;;;5077142;28;2656;-75
2022/01/25 04:25:43;;;;;;;;;;;;;;;;;;5095053;28;916;-75
2022/01/25 04:28:08;;;;;;;;;;;;;;;;;;5095203;28;924;-75
2022/01/25 04:30:33;;;;;;;;;;;;;;;;;;5096164;28;1247;-75
2022/01/25 04:33:05;;;;;;;;;;;;;;;;;;5095185;28;907;-76
2022/01/25 04:49:09;;;;;;;;;;;;;;;;;;5095268;28;842;-73
2022/01/25 04:59:26;;;;;;;;;;;;;;;;;;5094269;28;898;-76
2022/01/25 05:01:56;;;;;;;;;;;;;;;;;;5094544;28;1017;-76
2022/01/25 05:04:29;;;;;;;;;;;;;;;;;;5093948;28;882;-75
2022/01/25 05:07:03;;;;;;;;;;;;;;;;;;5094184;28;919;-75
2022/01/25 05:09:28;;;;;;;;;;;;;;;;;;5093506;28;1041;-76
2022/01/25 05:11:54;;;;;;;;;;;;;;;;;;5076810;28;845;-76
2022/01/25 05:14:29;;;;;;;;;;;;;;;;;;5094610;28;1910;-75
2022/01/25 05:16:59;;;;;;;;;;;;;;;;;;5093948;28;922;-75
2022/01/25 05:22:29;;;;;;;;;;;;;;;;;;5078758;28;870;-73
2022/01/25 05:24:54;;;;;;;;;;;;;;;;;;5093289;28;1034;-71
2022/01/25 05:27:21;;;;;;;;;;;;;;;;;;5093060;28;895;-72
2022/01/25 05:29:47;;;;;;;;;;;;;;;;;;5092811;28;1200;-73
2022/01/25 05:32:12;;;;;;;;;;;;;;;;;;5092989;28;930;-72
2022/01/25 05:34:37;;;;;;;;;;;;;;;;;;5091305;28;1894;-72
2022/01/25 05:37:03;;;;;;;;;;;;;;;;;;5073524;28;1344;-72
2022/01/25 05:39:33;;;;;;;;;;;;;;;;;;5092398;28;1251;-71
2022/01/25 05:47:06;;;;;;;;;;;;;;;;;;5093882;28;967;-72
2022/01/25 05:49:36;;;;;;;;;;;;;;;;;;5093589;28;916;-72
2022/01/25 05:52:03;;;;;;;;;;;;;;;;;;5092694;28;1832;-72
2022/01/25 05:54:30;;;;;;;;;;;;;;;;;;5092602;28;1905;-72
2022/01/25 05:56:55;;;;;;;;;;;;;;;;;;5093761;28;868;-72
2022/01/25 05:59:21;;;;;;;;;;;;;;;;;;5092925;28;872;-72
2022/01/25 06:01:46;;;;;;;;;;;;;;;;;;5074614;28;852;-71
2022/01/25 06:04:12;;;;;;;;;;;;;;;;;;5093236;28;880;-72
2022/01/25 06:06:37;;;;;;;;;;;;;;;;;;5093873;28;963;-72
2022/01/25 06:09:02;;;;;;;;;;;;;;;;;;5093108;28;939;-71
2022/01/25 06:11:27;;;;;;;;;;;;;;;;;;5093100;28;910;-72
2022/01/25 06:13:53;;;;;;;;;;;;;;;;;;5093637;28;872;-72
2022/01/25 06:16:19;;;;;;;;;;;;;;;;;;5058250;28;1914;-72
2022/01/25 06:18:45;;;;;;;;;;;;;;;;;;5092801;28;836;-72
2022/01/25 06:21:10;;;;;;;;;;;;;;;;;;5074844;28;1410;-72
2022/01/25 06:23:35;;;;;;;;;;;;;;;;;;5093843;28;856;-72
2022/01/25 06:26:00;;;;;;;;;;;;;;;;;;5092648;28;1072;-72
2022/01/25 06:28:26;;;;;;;;;;;;;;;;;;5092060;28;1705;-71
2022/01/25 06:30:51;;;;;;;;;;;;;;;;;;5072921;28;959;-72
2022/01/25 06:33:16;;;;;;;;;;;;;;;;;;5073381;28;875;-73
2022/01/25 06:35:45;;;;;;;;;;;;;;;;;;5071691;28;1910;-72
2022/01/25 06:38:10;;;;;;;;;;;;;;;;;;5054344;28;1019;-72
2022/01/25 06:40:35;;;;;;;;;;;;;;;;;;5073084;28;824;-73
2022/01/25 06:43:01;;;;;;;;;;;;;;;;;;5072129;28;801;-72
2022/01/25 06:45:27;;;;;;;;;;;;;;;;;;5071621;28;932;-73
2022/01/25 06:47:53;;;;;;;;;;;;;;;;;;5072235;28;1202;-72
2022/01/25 06:50:20;;;;;;;;;;;;;;;;;;5072176;28;842;-72
2022/01/25 06:52:45;;;;;;;;;;;;;;;;;;5071667;28;979;-72
2022/01/25 06:55:12;;;;;;;;;;;;;;;;;;5071616;28;1959;-72
2022/01/25 06:57:38;;;;;;;;;;;;;;;;;;5072412;28;1015;-72
2022/01/25 07:00:04;;;;;;;;;;;;;;;;;;5071727;28;833;-72
2022/01/25 07:02:30;;;;;;;;;;;;;;;;;;5071304;28;916;-72
2022/01/25 07:04:55;;;;;;;;;;;;;;;;;;5071547;28;848;-72
2022/01/25 07:07:20;;;;;;;;;;;;;;;;;;5072119;28;845;-72
2022/01/25 07:09:46;;;;;;;;;;;;;;;;;;5071314;28;777;-72
2022/01/25 07:12:11;;;;;;;;;;;;;;;;;;5071305;28;1113;-73
2022/01/25 07:14:36;;;;;;;;;;;;;;;;;;5071676;28;1914;-73
2022/01/25 07:17:02;;;;;;;;;;;;;;;;;;5071878;28;884;-73
2022/01/25 07:19:27;;;;;;;;;;;;;;;;;;5072281;28;987;-73
2022/01/25 07:21:54;;;;;;;;;;;;;;;;;;5071470;28;832;-73
2022/01/25 07:24:19;;;;;;;;;;;;;;;;;;5037396;28;1829;-73
2022/01/25 07:26:44;;;;;;;;;;;;;;;;;;5037169;28;963;-73
2022/01/25 07:29:10;;;;;;;;;;;;;;;;;;5081435;28;1687;-73
2022/01/25 07:31:35;;;;;;;;;;;;;;;;;;5095374;28;817;-74
2022/01/25 07:34:00;;;;;;;;;;;;;;;;;;5096208;28;974;-73
2022/01/25 07:36:26;;;;;;;;;;;;;;;;;;5096118;28;1914;-74
2022/01/25 07:38:51;;;;;;;;;;;;;;;;;;5096164;28;880;-75
2022/01/25 07:41:16;;;;;;;;;;;;;;;;;;5096252;28;847;-75
2022/01/25 07:43:42;;;;;;;;;;;;;;;;;;5095929;28;1578;-75
2022/01/25 07:46:08;;;;;;;;;;;;;;;;;;5095547;28;770;-75
2022/01/25 07:48:33;;;;;;;;;;;;;;;;;;5096445;28;852;-75
2022/01/25 07:50:59;;;;;;;;;;;;;;;;;;5096449;28;895;-75
2022/01/25 07:53:24;;;;;;;;;;;;;;;;;;5096106;28;904;-76
2022/01/25 07:55:49;;;;;;;;;;;;;;;;;;5077665;28;2016;-75
2022/01/25 07:58:14;;;;;;;;;;;;;;;;;;5096219;28;994;-73
2022/01/25 08:00:40;;;;;;;;;;;;;;;;;;5095586;28;1153;-73
2022/01/25 08:03:05;;;;;;;;;;;;;;;;;;5095079;28;1061;-73
2022/01/25 08:05:31;;;;;;;;;;;;;;;;;;5095746;28;903;-73
2022/01/25 08:07:58;;;;;;;;;;;;;;;;;;5095400;28;932;-73
2022/01/25 08:10:24;;;;;;;;;;;;;;;;;;5094694;28;924;-73
2022/01/25 08:12:49;;;;;;;;;;;;;;;;;;5094535;28;908;-73
2022/01/25 08:15:15;;;;;;;;;;;;;;;;;;5094661;28;1909;-73
2022/01/25 08:17:41;;;;;;;;;;;;;;;;;;5077730;28;864;-73
2022/01/25 08:20:06;;;;;;;;;;;;;;;;;;5094629;28;979;-75
2022/01/25 08:22:33;;;;;;;;;;;;;;;;;;5095280;28;833;-75
2022/01/25 08:24:58;;;;;;;;;;;;;;;;;;5094878;28;919;-75
2022/01/25 08:27:24;;;;;;;;;;;;;;;;;;5094911;28;821;-76
2022/01/25 08:29:50;;;;;;;;;;;;;;;;;;5094192;28;1345;-76
2022/01/25 08:32:16;;;;;;;;;;;;;;;;;;5094678;28;809;-75
2022/01/25 08:34:41;;;;;;;;;;;;;;;;;;5094295;28;1903;-76
2022/01/25 08:37:07;;;;;;;;;;;;;;;;;;5094366;28;793;-76
2022/01/25 08:39:32;;;;;;;;;;;;;;;;;;5093309;28;889;-76
2022/01/25 08:41:58;;;;;;;;;;;;;;;;;;5075880;28;838;-75
2022/01/25 08:44:24;;;;;;;;;;;;;;;;;;5088409;28;1172;-75
2022/01/25 08:46:49;;;;;;;;;;;;;;;;;;5094245;28;916;-74
2022/01/25 08:49:14;;;;;;;;;;;;;;;;;;5093933;28;923;-73
2022/01/25 08:51:40;;;;;;;;;;;;;;;;;;5093609;28;785;-73
2022/01/25 08:54:06;;;;;;;;;;;;;;;;;;5093449;28;996;-73
2022/01/25 08:56:31;;;;;;;;;;;;;;;;;;5093357;28;1910;-73
2022/01/25 08:58:57;;;;;;;;;;;;;;;;;;5093313;28;801;-73
2022/01/25 09:01:22;;;;;;;;;;;;;;;;;;5075485;28;1264;-73
2022/01/25 09:03:47;;;;;;;;;;;;;;;;;;5075709;28;1748;-73
2022/01/25 09:06:13;;;;;;;;;;;;;;;;;;5093059;28;971;-73
2022/01/25 09:08:38;;;;;;;;;;;;;;;;;;5093364;28;879;-73
2022/01/25 09:11:05;;;;;;;;;;;;;;;;;;5093251;28;863;-73
2022/01/25 09:13:31;;;;;;;;;;;;;;;;;;5074971;28;876;-73
2022/01/25 09:15:57;;;;;;;;;;;;;;;;;;5092837;28;1897;-73
2022/01/25 09:18:22;;;;;;;;;;;;;;;;;;5093335;28;889;-73
2022/01/25 09:20:48;;;;;;;;;;;;;;;;;;5074818;28;948;-72
2022/01/25 09:23:16;;;;;;;;;;;;;;;;;;5093004;28;955;-72
2022/01/25 09:25:42;;;;;;;;;;;;;;;;;;5092677;28;893;-72
2022/01/25 09:28:07;;;;;;;;;;;;;;;;;;5092764;28;860;-72
2022/01/25 09:30:33;;;;;;;;;;;;;;;;;;5093325;28;1231;-72
2022/01/25 09:32:58;;;;;;;;;;;;;;;;;;5086250;28;1255;-72
2022/01/25 09:35:24;;;;;;;;;;;;;;;;;;5072683;28;1905;-72
2022/01/25 09:37:50;;;;;;;;;;;;;;;;;;5072219;28;888;-72
2022/01/25 09:40:16;;;;;;;;;;;;;;;;;;5071257;28;856;-72
2022/01/25 09:42:41;;;;;;;;;;;;;;;;;;5072019;28;809;-73
2022/01/25 09:45:07;;;;;;;;;;;;;;;;;;5071996;28;836;-71
2022/01/25 09:47:32;;;;;;;;;;;;;;;;;;5071952;28;880;-71
2022/01/25 09:49:58;;;;;;;;;;;;;;;;;;5053881;28;821;-71
2022/01/25 09:52:24;;;;;;;;;;;;;;;;;;5072049;28;884;-71
2022/01/25 09:54:57;;;;;;;;;;;;;;;;;;5072169;28;1951;-71
2022/01/25 09:57:23;;;;;;;;;;;;;;;;;;5071417;28;860;-72
2022/01/25 09:59:49;;;;;;;;;;;;;;;;;;5054445;28;1796;-71
2022/01/25 10:02:33;;;;;;;;;;;;;;;;;;5071970;28;876;-71
2022/01/25 10:05:14;;;;;;;;;;;;;;;;;;5071788;28;914;-71
2022/01/25 10:07:39;;;;;;;;;;;;;;;;;;5071355;28;892;-71
2022/01/25 10:10:05;;;;;;;;;;;;;;;;;;5071714;28;822;-71
2022/01/25 10:12:30;;;;;;;;;;;;;;;;;;5071704;28;979;-71
2022/01/25 10:15:01;;;;;;;;;;;;;;;;;;5071842;28;1957;-71
2022/01/25 10:17:33;;;;;;;;;;;;;;;;;;5071946;28;854;-71
2022/01/25 10:19:58;;;;;;;;;;;;;;;;;;5072223;28;1090;-72
2022/01/25 10:22:24;;;;;;;;;;;;;;;;;;5071099;28;912;-72
2022/01/25 10:24:49;;;;;;;;;;;;;;;;;;5072378;28;900;-71
2022/01/25 10:27:15;;;;;;;;;;;;;;;;;;5071566;28;999;-71
2022/01/25 10:29:41;;;;;;;;;;;;;;;;;;5082267;28;1500;-71
2022/01/25 10:32:14;;;;;;;;;;;;;;;;;;5092124;28;861;-72
2022/01/25 10:34:45;;;;;;;;;;;;;;;;;;5092301;28;1918;-71
2022/01/25 10:37:11;;;;;;;;;;;;;;;;;;5092815;28;858;-75
2022/01/25 10:39:40;;;;;;;;;;;;;;;;;;5092418;28;825;-74
2022/01/25 10:42:05;;;;;;;;;;;;;;;;;;5092412;28;813;-75
2022/01/25 10:44:47;;;;;;;;;;;;;;;;;;5093435;28;829;-71
2022/01/25 10:47:12;;;;;;;;;;;;;;;;;;5093075;28;797;-72
2022/01/25 10:49:44;;;;;;;;;;;;;;;;;;5092666;28;1077;-72
2022/01/25 10:52:10;;;;;;;;;;;;;;;;;;5091496;28;1007;-72
2022/01/25 10:54:38;;;;;;;;;;;;;;;;;;5092268;28;1965;-72
2022/01/25 10:57:03;;;;;;;;;;;;;;;;;;5092230;28;877;-72
2022/01/25 10:59:32;;;;;;;;;;;;;;;;;;5092150;28;936;-72
2022/01/25 11:02:02;;;;;;;;;;;;;;;;;;5094573;28;820;-72
2022/01/25 11:04:38;;;;;;;;;;;;;;;;;;5080708;28;1136;-72
2022/01/25 11:07:05;;;;;;;;;;;;;;;;;;5099697;28;947;-72
2022/01/25 11:09:36;;;;;;;;;;;;;;;;;;5099009;28;1055;-73
2022/01/25 11:12:03;;;;;;;;;;;;;;;;;;5099495;28;879;-72
2022/01/25 11:17:13;;;;;;;;;;;;;;;;;;5098671;28;630;-72
2022/01/25 11:19:38;;;;;;;;;;;;;;;;;;5098992;28;832;-72
2022/01/25 11:22:04;;;;;;;;;;;;;;;;;;5098834;28;923;-72
2022/01/25 11:24:31;;;;;;;;;;;;;;;;;;5098661;28;1075;-72
2022/01/25 11:26:59;;;;;;;;;;;;;;;;;;5100325;28;908;-77
2022/01/25 11:29:25;;;;;;;;;;;;;;;;;;5096503;28;1392;-76
2022/01/25 11:31:52;;;;;;;;;;;;;;;;;;5083508;28;951;-76
2022/01/25 11:34:22;;;;;;;;;;;;;;;;;;5062999;28;1303;-71
2022/01/25 11:36:52;;;;;;;;;;;;;;;;;;5081354;28;1910;-72
2022/01/25 11:39:26;;;;;;;;;;;;;;;;;;5080544;28;856;-72
2022/01/25 11:41:52;;;;;;;;;;;;;;;;;;5081576;28;1085;-72
2022/01/25 11:44:18;;;;;;;;;;;;;;;;;;5081471;28;860;-72
2022/01/25 11:46:47;;;;;;;;;;;;;;;;;;5081406;28;979;-71
2022/01/25 11:49:15;;;;;;;;;;;;;;;;;;5083011;28;880;-78
2022/01/25 11:51:40;;;;;;;;;;;;;;;;;;5083631;28;813;-77
2022/01/25 11:54:08;;;;;;;;;;;;;;;;;;5083992;28;861;-77
2022/01/25 11:56:34;;;;;;;;;;;;;;;;;;5083477;28;1901;-77
2022/01/25 11:59:00;;;;;;;;;;;;;;;;;;5083039;28;888;-77
2022/01/25 12:01:26;;;;;;;;;;;;;;;;;;5082342;28;936;-77
2022/01/25 12:04:02;;;;;;;;;;;;;;;;;;5083990;28;1628;-75
2022/01/25 12:07:00;;;;;;;;;;;;;;;;;;5083949;28;951;-77
2022/01/25 12:09:42;;;;;;;;;;;;;;;;;;5076801;28;1618;-77
2022/01/25 12:12:11;;;;;;;;;;;;;;;;;;5066257;28;912;-77
2022/01/25 12:14:40;;;;;;;;;;;;;;;;;;5074562;28;1959;-73
2022/01/25 12:17:06;;;;;;;;;;;;;;;;;;5056743;28;1465;-73
2022/01/25 12:19:37;;;;;;;;;;;;;;;;;;5074749;28;897;-74
2022/01/25 12:22:07;;;;;;;;;;;;;;;;;;5075353;28;903;-74
2022/01/25 12:25:04;;;;;;;;;;;;;;;;;;5074870;28;999;-74
2022/01/25 12:27:39;;;;;;;;;;;;;;;;;;5073509;28;1765;-73
2022/01/25 12:30:12;;;;;;;;;;;;;;;;;;5074521;28;1168;-74
2022/01/25 12:33:02;;;;;;;;;;;;;;;;;;5056620;28;1351;-74
2022/01/25 12:35:34;;;;;;;;;;;;;;;;;;5055923;28;2207;-74
2022/01/25 12:38:00;;;;;;;;;;;;;;;;;;5055395;28;1321;-73
2022/01/25 12:40:25;;;;;;;;;;;;;;;;;;5055481;28;991;-73
2022/01/25 12:42:51;;;;;;;;;;;;;;;;;;5074507;28;829;-73
2022/01/25 12:45:17;;;;;;;;;;;;;;;;;;5074444;28;995;-73
2022/01/25 12:47:52;;;;;;;;;;;;;;;;;;5075231;28;904;-78
2022/01/25 12:50:18;;;;;;;;;;;;;;;;;;5056476;28;885;-77
2022/01/25 12:52:45;;;;;;;;;;;;;;;;;;5074405;28;942;-78
2022/01/25 12:55:29;;;;;;;;;;;;;;;;;;5074940;28;1878;-77
2022/01/25 12:57:55;;;;;;;;;;;;;;;;;;5074838;28;871;-77
2022/01/25 13:00:21;;;;;;;;;;;;;;;;;;5075167;28;871;-77
2022/01/25 13:02:46;;;;;;;;;;;;;;;;;;5075366;28;907;-77
2022/01/25 13:05:19;;;;;;;;;;;;;;;;;;5074053;28;982;-77
2022/01/25 13:07:44;;;;;;;;;;;;;;;;;;5073822;28;931;-77
2022/01/25 13:10:12;;;;;;;;;;;;;;;;;;5074065;28;917;-77
2022/01/25 13:12:54;;;;;;;;;;;;;;;;;;5073946;28;907;-77
2022/01/25 13:18:12;;;;;;;;;;;;;;;;;;5073876;28;848;-77
2022/01/25 13:20:42;;;;;;;;;;;;;;;;;;5073682;28;841;-77
2022/01/25 13:23:08;;;;;;;;;;;;;;;;;;5073468;28;846;-77
2022/01/25 13:28:53;;;;;;;;;;;;;;;;;;5073638;28;710;-77
2022/01/25 13:31:22;;;;;;;;;;;;;;;;;;5073553;28;915;-77
2022/01/25 13:33:47;;;;;;;;;;;;;;;;;;5073060;28;845;-77
2022/01/25 13:36:14;;;;;;;;;;;;;;;;;;5073391;28;1914;-77
2022/01/25 13:38:41;;;;;;;;;;;;;;;;;;5073311;28;916;-77
2022/01/25 13:46:06;;;;;;;;;;;;;;;;;;5074012;28;1023;-77
2022/01/25 13:48:33;;;;;;;;;;;;;;;;;;5073589;28;991;-78
2022/01/25 13:50:59;;;;;;;;;;;;;;;;;;5073568;28;877;-78
2022/01/25 13:53:27;;;;;;;;;;;;;;;;;;5073657;28;802;-77
2022/01/25 13:55:54;;;;;;;;;;;;;;;;;;5073010;28;1954;-77
2022/01/25 13:58:20;;;;;;;;;;;;;;;;;;5073169;28;908;-77
2022/01/25 14:00:45;;;;;;;;;;;;;;;;;;5073000;28;877;-77
2022/01/25 14:03:12;;;;;;;;;;;;;;;;;;5054479;28;1212;-77
2022/01/25 14:05:38;;;;;;;;;;;;;;;;;;5072516;28;850;-78
2022/01/25 14:08:03;;;;;;;;;;;;;;;;;;5072981;28;928;-78
2022/01/25 14:10:29;;;;;;;;;;;;;;;;;;5054514;28;1280;-77
2022/01/25 14:23:54;;;;;;;;;;;;;;;;;;5072430;28;647;-73
2022/01/25 14:26:20;;;;;;;;;;;;;;;;;;5054586;28;878;-73
2022/01/25 14:28:54;;;;;;;;;;;;;;;;;;5072401;28;1316;-73
2022/01/25 14:31:20;;;;;;;;;;;;;;;;;;5072397;28;995;-74
2022/01/25 14:33:50;;;;;;;;;;;;;;;;;;5054061;28;821;-74
2022/01/25 14:36:16;;;;;;;;;;;;;;;;;;5071538;28;1905;-73
2022/01/25 14:38:43;;;;;;;;;;;;;;;;;;5072003;28;817;-74
2022/01/25 14:41:13;;;;;;;;;;;;;;;;;;5071806;28;853;-73
2022/01/25 14:43:39;;;;;;;;;;;;;;;;;;5054189;28;922;-73
2022/01/25 14:46:26;;;;;;;;;;;;;;;;;;5054379;28;1302;-73
2022/01/25 14:49:02;;;;;;;;;;;;;;;;;;5072074;28;904;-74
2022/01/25 14:51:31;;;;;;;;;;;;;;;;;;5072992;28;1017;-73
2022/01/25 14:53:58;;;;;;;;;;;;;;;;;;5072361;28;925;-73
2022/01/25 14:56:28;;;;;;;;;;;;;;;;;;5072452;28;1893;-73
2022/01/25 15:01:22;;;;;;;;;;;;;;;;;;5054545;28;852;-73
2022/01/25 15:03:49;;;;;;;;;;;;;;;;;;5053726;28;1596;-73
2022/01/25 15:06:15;;;;;;;;;;;;;;;;;;5071963;28;1044;-74
2022/01/25 15:09:10;;;;;;;;;;;;;;;;;;5071680;28;852;-74
2022/01/25 15:11:37;;;;;;;;;;;;;;;;;;5054043;28;1348;-74
2022/01/25 15:14:09;;;;;;;;;;;;;;;;;;5071428;28;892;-74
2022/01/25 15:16:35;;;;;;;;;;;;;;;;;;5052955;28;1965;-74
2022/01/25 15:19:01;;;;;;;;;;;;;;;;;;5070979;28;782;-74
2022/01/25 15:21:26;;;;;;;;;;;;;;;;;;5053301;28;901;-73
2022/01/25 15:23:51;;;;;;;;;;;;;;;;;;5071101;28;845;-74
2022/01/25 15:26:18;;;;;;;;;;;;;;;;;;5053554;28;930;-74
2022/01/25 15:28:47;;;;;;;;;;;;;;;;;;5055314;28;1371;-74
2022/01/25 15:31:14;;;;;;;;;;;;;;;;;;5091802;28;888;-74
2022/01/25 15:33:40;;;;;;;;;;;;;;;;;;5091907;28;769;-74
2022/01/25 15:36:06;;;;;;;;;;;;;;;;;;5073523;28;1910;-74
2022/01/25 15:38:32;;;;;;;;;;;;;;;;;;5073585;28;837;-74
2022/01/25 15:40:59;;;;;;;;;;;;;;;;;;5091825;28;849;-74
2022/01/25 15:43:26;;;;;;;;;;;;;;;;;;5091692;28;834;-74
2022/01/25 15:46:02;;;;;;;;;;;;;;;;;;5091767;28;844;-75
2022/01/25 15:48:27;;;;;;;;;;;;;;;;;;5093638;28;848;-75
2022/01/25 15:50:52;;;;;;;;;;;;;;;;;;5095517;28;1229;-74
2022/01/25 15:53:18;;;;;;;;;;;;;;;;;;5096547;28;888;-79
2022/01/25 15:55:43;;;;;;;;;;;;;;;;;;5095780;28;1902;-78
2022/01/25 15:58:08;;;;;;;;;;;;;;;;;;5077684;28;1100;-78
2022/01/25 16:00:34;;;;;;;;;;;;;;;;;;5077278;28;1304;-78
2022/01/25 16:03:00;;;;;;;;;;;;;;;;;;5077170;28;869;-79
2022/01/25 16:05:25;;;;;;;;;;;;;;;;;;5077286;28;1045;-79
2022/01/25 16:07:52;;;;;;;;;;;;;;;;;;5096022;28;1046;-79
2022/01/25 16:10:18;;;;;;;;;;;;;;;;;;5095711;28;910;-79
2022/01/25 16:12:44;;;;;;;;;;;;;;;;;;5096743;28;823;-78
2022/01/25 16:15:09;;;;;;;;;;;;;;;;;;5077442;28;1959;-78
2022/01/25 16:17:34;;;;;;;;;;;;;;;;;;5077222;28;820;-78
2022/01/25 16:19:59;;;;;;;;;;;;;;;;;;5076922;28;754;-77
2022/01/25 16:22:25;;;;;;;;;;;;;;;;;;5095371;28;959;-78
2022/01/25 16:24:50;;;;;;;;;;;;;;;;;;5095820;28;1063;-78
2022/01/25 16:27:15;;;;;;;;;;;;;;;;;;5095660;28;948;-79
2022/01/25 16:29:41;;;;;;;;;;;;;;;;;;5077252;28;1234;-78
2022/01/25 16:32:06;;;;;;;;;;;;;;;;;;5077432;28;1172;-80
2022/01/25 16:34:32;;;;;;;;;;;;;;;;;;5095217;28;1232;-74
2022/01/25 16:36:57;;;;;;;;;;;;;;;;;;5076499;28;2003;-75
2022/01/25 16:39:25;;;;;;;;;;;;;;;;;;5075727;28;1352;-74
2022/01/25 16:41:50;;;;;;;;;;;;;;;;;;5076735;28;879;-75
2022/01/25 16:44:16;;;;;;;;;;;;;;;;;;5094500;28;974;-74
2022/01/25 16:46:42;;;;;;;;;;;;;;;;;;5076242;28;1193;-75
2022/01/25 16:49:07;;;;;;;;;;;;;;;;;;5075731;28;1183;-75
2022/01/25 16:51:32;;;;;;;;;;;;;;;;;;5094656;28;890;-75
2022/01/25 16:53:59;;;;;;;;;;;;;;;;;;5076564;28;952;-75
2022/01/25 16:56:24;;;;;;;;;;;;;;;;;;5075942;28;1959;-75
2022/01/25 16:58:57;;;;;;;;;;;;;;;;;;5075663;28;1155;-75
2022/01/25 17:01:24;;;;;;;;;;;;;;;;;;5074707;28;871;-75
2022/01/25 17:03:49;;;;;;;;;;;;;;;;;;5093899;28;948;-75
2022/01/25 17:06:15;;;;;;;;;;;;;;;;;;5075646;28;1426;-75
2022/01/25 17:08:40;;;;;;;;;;;;;;;;;;5093557;28;856;-75
2022/01/25 17:11:06;;;;;;;;;;;;;;;;;;5093475;28;763;-75
2022/01/25 17:13:31;;;;;;;;;;;;;;;;;;5093996;28;885;-81
2022/01/25 17:15:58;;;;;;;;;;;;;;;;;;5076218;28;1914;-79
2022/01/25 17:18:24;;;;;;;;;;;;;;;;;;5093301;28;876;-80
2022/01/25 17:20:49;;;;;;;;;;;;;;;;;;5076687;28;1199;-80
2022/01/25 17:23:15;;;;;;;;;;;;;;;;;;5076111;28;1354;-80
2022/01/25 17:25:40;;;;;;;;;;;;;;;;;;5076596;28;1090;-80
2022/01/25 17:28:05;;;;;;;;;;;;;;;;;;5076514;28;919;-80
2022/01/25 17:30:31;;;;;;;;;;;;;;;;;;5086767;28;1295;-80
2022/01/25 17:32:56;;;;;;;;;;;;;;;;;;5073966;28;824;-80
2022/01/25 17:35:21;;;;;;;;;;;;;;;;;;5074112;28;1898;-80
2022/01/25 17:37:47;;;;;;;;;;;;;;;;;;5073896;28;774;-80
2022/01/25 17:40:12;;;;;;;;;;;;;;;;;;5074122;28;916;-81
2022/01/25 17:42:38;;;;;;;;;;;;;;;;;;5056364;28;900;-80
2022/01/25 17:45:05;;;;;;;;;;;;;;;;;;5039425;28;1097;-81
2022/01/25 17:47:30;;;;;;;;;;;;;;;;;;5074454;28;848;-82
2022/01/25 17:49:56;;;;;;;;;;;;;;;;;;5074073;28;976;-81
2022/01/25 17:52:21;;;;;;;;;;;;;;;;;;5073568;28;866;-81
2022/01/25 17:54:46;;;;;;;;;;;;;;;;;;5074298;28;1000;-82
2022/01/25 17:57:12;;;;;;;;;;;;;;;;;;5055814;28;1979;-82
2022/01/25 17:59:37;;;;;;;;;;;;;;;;;;5073868;28;840;-82
2022/01/25 18:02:03;;;;;;;;;;;;;;;;;;5073870;28;845;-79
2022/01/25 18:04:28;;;;;;;;;;;;;;;;;;5055477;28;941;-79
2022/01/25 18:06:55;;;;;;;;;;;;;;;;;;5073432;28;925;-79
2022/01/25 18:09:20;;;;;;;;;;;;;;;;;;5073376;28;906;-80
2022/01/25 18:11:46;;;;;;;;;;;;;;;;;;5072958;28;1623;-80
2022/01/25 18:14:11;;;;;;;;;;;;;;;;;;5074093;28;829;-80
2022/01/25 18:16:37;;;;;;;;;;;;;;;;;;5073290;28;1965;-80
2022/01/25 18:19:06;;;;;;;;;;;;;;;;;;5074019;28;829;-79
2022/01/25 18:21:34;;;;;;;;;;;;;;;;;;5073041;28;838;-79
2022/01/25 18:24:11;;;;;;;;;;;;;;;;;;5073153;28;823;-79
2022/01/25 18:29:05;;;;;;;;;;;;;;;;;;5072790;28;755;-80
2022/01/25 18:31:30;;;;;;;;;;;;;;;;;;5066285;28;1156;-79
2022/01/25 18:33:57;;;;;;;;;;;;;;;;;;5072966;28;975;-79
2022/01/25 18:36:22;;;;;;;;;;;;;;;;;;5072705;28;1910;-80
2022/01/25 18:38:47;;;;;;;;;;;;;;;;;;5073207;28;631;-80
2022/01/25 18:41:13;;;;;;;;;;;;;;;;;;5072853;28;875;-80
2022/01/25 18:43:38;;;;;;;;;;;;;;;;;;5072904;28;864;-80
2022/01/25 18:46:05;;;;;;;;;;;;;;;;;;5072857;28;836;-80
2022/01/25 18:48:32;;;;;;;;;;;;;;;;;;5072929;28;871;-80
2022/01/25 18:50:57;;;;;;;;;;;;;;;;;;5072777;28;873;-80
2022/01/25 18:53:22;;;;;;;;;;;;;;;;;;5072837;28;864;-79
2022/01/25 18:55:47;;;;;;;;;;;;;;;;;;5073060;28;1894;-79
2022/01/25 18:58:13;;;;;;;;;;;;;;;;;;5072684;28;955;-79
2022/01/25 19:00:38;;;;;;;;;;;;;;;;;;5072897;28;880;-79
2022/01/25 19:03:04;;;;;;;;;;;;;;;;;;5073291;28;876;-79
2022/01/25 19:05:30;;;;;;;;;;;;;;;;;;5071989;28;828;-80
2022/01/25 19:07:56;;;;;;;;;;;;;;;;;;5073572;28;848;-80
2022/01/25 19:10:22;;;;;;;;;;;;;;;;;;5072989;28;865;-80
2022/01/25 19:12:48;;;;;;;;;;;;;;;;;;5071466;28;1205;-80
2022/01/25 19:15:13;;;;;;;;;;;;;;;;;;5071579;28;1910;-80
2022/01/25 19:17:39;;;;;;;;;;;;;;;;;;5073149;28;967;-80
2022/01/25 19:20:06;;;;;;;;;;;;;;;;;;5071312;28;920;-80
2022/01/25 19:22:33;;;;;;;;;;;;;;;;;;5071528;28;951;-79
2022/01/25 19:24:58;;;;;;;;;;;;;;;;;;5076318;28;1239;-80
2022/01/25 19:27:24;;;;;;;;;;;;;;;;;;5076730;28;967;-81
2022/01/25 19:29:49;;;;;;;;;;;;;;;;;;5059669;28;1984;-80